< < Back
Terminal Aerodrome Forecast


Current Version              Previous Versions:   1  2  3  4  5  6  7  8  9  

Terminal Aerodrome Forecast

682
FTUS44 KMOB 301100
TAFMOB
TAF
KMOB 301131Z 3012/3112 01005KT P6SM SKC
     FM301800 36008KT P6SM SKC=

Latest METAR

193
SAUS80 KWBC 301700 CCA
MTRMOB
METAR KMOB 301656Z VRB04KT 10SM FEW050 FEW250 27/15 A3007 RMK AO2 SLP178
T02720150


USA.gov is the U.S. government's official web portal to all federal, state and local government web resources and services.